Time;durP1;ratioP1;P1;durP2;ratioP2;P2;SDS_P1;SDS_P2;PMS_P1;PMS_P2;Temp;Humidity;BMP_temperature;BMP_pressure;BME280_temperature;BME280_humidity;BME280_pressure;Samples;Min_cycle;Max_cycle;Signal;HPM_P1;HPM_P2
2023/01/23 00:00:12;;;;;;;13.90;7.65;;;;;;;;;;6261949;28;20064;-74
2023/01/23 00:03:15;;;;;;;15.50;8.40;;;;;;;;;;6260892;28;20359;-74
2023/01/23 00:06:18;;;;;;;13.90;7.22;;;;;;;;;;6264484;28;20048;-73
2023/01/23 00:09:19;;;;;;;17.33;8.70;;;;;;;;;;6262437;28;20104;-74
2023/01/23 00:12:21;;;;;;;14.93;8.38;;;;;;;;;;6262551;28;20117;-74
2023/01/23 00:15:23;;;;;;;15.13;7.93;;;;;;;;;;6262797;28;20052;-74
2023/01/23 00:18:26;;;;;;;12.40;7.43;;;;;;;;;;6260362;28;20053;-74
2023/01/23 00:21:29;;;;;;;17.15;8.07;;;;;;;;;;6260686;28;20044;-74
2023/01/23 00:24:30;;;;;;;13.55;8.52;;;;;;;;;;6261864;28;20091;-74
2023/01/23 00:27:32;;;;;;;12.90;7.95;;;;;;;;;;6262565;28;20893;-74
2023/01/23 00:30:34;;;;;;;12.80;8.40;;;;;;;;;;6263083;28;20053;-74
2023/01/23 00:33:37;;;;;;;37.70;17.58;;;;;;;;;;6264595;28;20056;-78
2023/01/23 00:36:41;;;;;;;29.75;14.30;;;;;;;;;;6263166;28;20049;-76
2023/01/23 00:39:44;;;;;;;34.05;15.57;;;;;;;;;;6263381;28;20056;-74
2023/01/23 00:42:45;;;;;;;35.53;18.33;;;;;;;;;;6262724;28;20044;-77
2023/01/23 00:45:47;;;;;;;70.85;31.40;;;;;;;;;;6260861;28;20053;-76
2023/01/23 00:48:50;;;;;;;24.92;15.25;;;;;;;;;;6263538;28;20053;-75
2023/01/23 00:51:55;;;;;;;17.00;8.95;;;;;;;;;;6266314;28;20124;-75
2023/01/23 00:54:56;;;;;;;12.70;7.97;;;;;;;;;;6268416;28;20059;-74
2023/01/23 00:57:58;;;;;;;14.32;8.45;;;;;;;;;;6269203;28;20275;-74
2023/01/23 01:01:00;;;;;;;14.40;8.52;;;;;;;;;;6270412;28;20112;-75
2023/01/23 01:04:03;;;;;;;16.85;8.80;;;;;;;;;;6266713;28;20222;-76
2023/01/23 01:07:05;;;;;;;15.20;9.55;;;;;;;;;;6267394;28;20064;-74
2023/01/23 01:10:07;;;;;;;17.90;9.27;;;;;;;;;;6263579;28;20380;-75
2023/01/23 01:13:09;;;;;;;15.25;9.10;;;;;;;;;;6265922;28;20241;-74
2023/01/23 01:16:11;;;;;;;14.93;9.30;;;;;;;;;;6262536;28;20146;-76
2023/01/23 01:19:15;;;;;;;15.25;8.55;;;;;;;;;;6266100;28;20060;-75
2023/01/23 01:22:17;;;;;;;11.85;8.80;;;;;;;;;;6265363;28;20053;-75
2023/01/23 01:25:19;;;;;;;14.55;9.05;;;;;;;;;;6267376;28;20379;-75
2023/01/23 01:28:20;;;;;;;16.45;8.48;;;;;;;;;;6265113;28;20064;-75
2023/01/23 01:31:22;;;;;;;15.23;8.93;;;;;;;;;;6260254;28;20330;-75
2023/01/23 01:34:25;;;;;;;11.52;7.63;;;;;;;;;;6263269;28;20111;-75
2023/01/23 01:37:27;;;;;;;16.15;8.98;;;;;;;;;;6271944;28;20053;-74
2023/01/23 01:40:32;;;;;;;12.70;8.15;;;;;;;;;;6263540;28;20053;-74
2023/01/23 01:43:34;;;;;;;15.32;7.80;;;;;;;;;;6266403;28;20222;-76
2023/01/23 01:46:36;;;;;;;10.90;7.70;;;;;;;;;;6265847;28;20053;-74
2023/01/23 01:49:39;;;;;;;12.65;7.93;;;;;;;;;;6265152;28;20057;-74
2023/01/23 01:52:40;;;;;;;13.25;8.43;;;;;;;;;;6265390;28;20118;-75
2023/01/23 01:55:42;;;;;;;13.40;8.63;;;;;;;;;;6265267;28;20247;-73
2023/01/23 01:58:46;;;;;;;13.85;8.63;;;;;;;;;;6264658;28;20060;-74
2023/01/23 02:01:51;;;;;;;17.08;8.95;;;;;;;;;;6263188;28;20041;-75
2023/01/23 02:05:00;;;;;;;13.88;8.57;;;;;;;;;;6265757;28;20059;-75
2023/01/23 02:08:06;;;;;;;15.18;9.30;;;;;;;;;;6264289;28;20073;-75
2023/01/23 02:11:08;;;;;;;15.05;9.40;;;;;;;;;;6264353;28;20053;-75
2023/01/23 02:14:10;;;;;;;15.45;8.68;;;;;;;;;;6264121;28;20057;-75
2023/01/23 02:17:12;;;;;;;14.50;9.32;;;;;;;;;;6264451;28;20045;-75
2023/01/23 02:20:19;;;;;;;15.15;9.57;;;;;;;;;;6269394;28;20080;-75
2023/01/23 02:23:26;;;;;;;16.45;9.98;;;;;;;;;;6271592;28;20130;-74
2023/01/23 02:26:31;;;;;;;17.85;10.13;;;;;;;;;;6268535;28;20054;-75
2023/01/23 02:29:43;;;;;;;17.08;10.15;;;;;;;;;;6268538;28;20053;-76
2023/01/23 02:32:45;;;;;;;16.13;10.45;;;;;;;;;;6273257;28;20552;-75
2023/01/23 02:35:47;;;;;;;15.25;9.80;;;;;;;;;;6270159;28;20436;-75
2023/01/23 02:38:53;;;;;;;17.17;10.02;;;;;;;;;;6269691;28;20394;-75
2023/01/23 02:41:57;;;;;;;17.73;10.00;;;;;;;;;;6270683;28;20057;-75
2023/01/23 02:44:58;;;;;;;12.70;7.90;;;;;;;;;;6270892;28;20095;-75
2023/01/23 02:48:00;;;;;;;16.17;10.43;;;;;;;;;;6269329;28;20821;-75
2023/01/23 02:51:02;;;;;;;16.38;10.07;;;;;;;;;;6262663;28;20237;-74
2023/01/23 02:54:04;;;;;;;17.05;10.27;;;;;;;;;;6264655;28;20049;-75
2023/01/23 02:57:07;;;;;;;16.08;10.27;;;;;;;;;;6264515;28;20045;-73
2023/01/23 03:00:15;;;;;;;18.85;10.55;;;;;;;;;;6259933;28;20049;-73
2023/01/23 03:03:17;;;;;;;16.42;10.27;;;;;;;;;;6260665;28;20133;-74
2023/01/23 03:06:19;;;;;;;18.35;10.48;;;;;;;;;;6265915;28;20053;-74
2023/01/23 03:09:21;;;;;;;15.95;10.07;;;;;;;;;;6262443;28;20044;-75
2023/01/23 03:12:24;;;;;;;13.90;9.40;;;;;;;;;;6262142;28;20118;-75
2023/01/23 03:15:26;;;;;;;16.20;10.07;;;;;;;;;;6263762;28;20041;-75
2023/01/23 03:18:29;;;;;;;16.15;9.57;;;;;;;;;;6263612;28;20049;-75
2023/01/23 03:21:32;;;;;;;15.40;9.68;;;;;;;;;;6266346;28;20120;-75
2023/01/23 03:24:35;;;;;;;16.23;10.30;;;;;;;;;;6262156;28;20049;-74
2023/01/23 03:27:38;;;;;;;16.75;9.80;;;;;;;;;;6260555;28;20091;-74
2023/01/23 03:30:38;;;;;;;16.33;10.40;;;;;;;;;;6259195;28;20068;-75
2023/01/23 03:33:42;;;;;;;14.77;10.20;;;;;;;;;;6262163;28;20095;-75
2023/01/23 03:36:44;;;;;;;14.67;9.80;;;;;;;;;;6264045;28;20112;-74
2023/01/23 03:43:06;;;;;;;15.02;9.90;;;;;;;;;;6265705;28;20040;-75
2023/01/23 03:46:08;;;;;;;17.02;10.60;;;;;;;;;;6266289;28;20060;-76
2023/01/23 03:49:10;;;;;;;15.80;10.70;;;;;;;;;;6265143;28;20226;-75
2023/01/23 03:52:12;;;;;;;16.02;10.82;;;;;;;;;;6264744;28;20114;-75
2023/01/23 03:55:14;;;;;;;15.68;10.70;;;;;;;;;;6268621;28;20056;-76
2023/01/23 03:58:17;;;;;;;16.35;10.10;;;;;;;;;;6266637;28;20150;-78
2023/01/23 04:01:19;;;;;;;19.15;11.10;;;;;;;;;;6268324;28;20123;-76
2023/01/23 04:04:20;;;;;;;15.88;10.57;;;;;;;;;;6265357;28;20053;-75
2023/01/23 04:07:22;;;;;;;18.48;10.85;;;;;;;;;;6261569;28;20053;-75
2023/01/23 04:10:24;;;;;;;19.08;11.70;;;;;;;;;;6261902;28;20053;-75
2023/01/23 04:13:27;;;;;;;16.90;10.50;;;;;;;;;;6261709;28;20049;-76
2023/01/23 04:16:28;;;;;;;18.98;11.18;;;;;;;;;;6260970;28;20116;-76
2023/01/23 04:19:30;;;;;;;19.23;11.75;;;;;;;;;;6260703;28;20057;-76
2023/01/23 04:22:32;;;;;;;17.73;11.38;;;;;;;;;;6263730;28;20072;-75
2023/01/23 04:25:33;;;;;;;17.38;11.85;;;;;;;;;;6270249;28;20329;-75
2023/01/23 04:28:36;;;;;;;24.25;12.70;;;;;;;;;;6267162;28;21367;-75
2023/01/23 04:31:38;;;;;;;18.90;11.82;;;;;;;;;;6265400;28;20122;-75
2023/01/23 04:34:40;;;;;;;19.25;12.45;;;;;;;;;;6266775;28;20053;-73
2023/01/23 04:37:41;;;;;;;19.77;12.40;;;;;;;;;;6265827;28;20365;-75
2023/01/23 04:40:43;;;;;;;19.95;12.73;;;;;;;;;;6271155;28;20051;-75
2023/01/23 04:43:46;;;;;;;16.92;11.50;;;;;;;;;;6266084;28;20111;-75
2023/01/23 04:46:49;;;;;;;23.05;12.73;;;;;;;;;;6265872;28;20281;-74
2023/01/23 04:49:50;;;;;;;20.25;12.73;;;;;;;;;;6266785;28;20050;-75
2023/01/23 04:52:52;;;;;;;18.65;12.15;;;;;;;;;;6265868;28;20064;-75
2023/01/23 04:55:54;;;;;;;17.23;11.38;;;;;;;;;;6264416;28;20514;-75
2023/01/23 04:58:57;;;;;;;22.15;12.77;;;;;;;;;;6265447;28;20352;-75
2023/01/23 05:02:01;;;;;;;18.63;12.13;;;;;;;;;;6267161;28;20048;-75
2023/01/23 05:05:02;;;;;;;21.05;12.23;;;;;;;;;;6268052;28;20053;-75
2023/01/23 05:08:04;;;;;;;17.95;11.23;;;;;;;;;;6265208;28;20059;-73
2023/01/23 05:11:06;;;;;;;19.77;11.98;;;;;;;;;;6265709;28;20099;-75
2023/01/23 05:14:10;;;;;;;17.40;11.43;;;;;;;;;;6265155;28;20071;-74
2023/01/23 05:17:11;;;;;;;23.17;11.40;;;;;;;;;;6269010;28;20063;-75
2023/01/23 05:20:13;;;;;;;20.92;11.65;;;;;;;;;;6266663;28;20214;-73
2023/01/23 05:23:15;;;;;;;19.40;12.30;;;;;;;;;;6266274;28;20057;-73
2023/01/23 05:26:16;;;;;;;20.50;11.55;;;;;;;;;;6263500;28;20390;-74
2023/01/23 05:29:20;;;;;;;18.15;12.20;;;;;;;;;;6262879;28;20049;-75
2023/01/23 05:32:21;;;;;;;18.27;11.23;;;;;;;;;;6267795;28;20057;-76
2023/01/23 05:35:23;;;;;;;18.45;11.63;;;;;;;;;;6263606;28;20056;-75
2023/01/23 05:38:25;;;;;;;19.30;11.68;;;;;;;;;;6265583;28;20260;-75
2023/01/23 05:41:26;;;;;;;16.10;10.52;;;;;;;;;;6266497;28;20261;-74
2023/01/23 05:44:29;;;;;;;18.27;11.63;;;;;;;;;;6265066;28;20049;-75
2023/01/23 05:47:31;;;;;;;24.25;12.77;;;;;;;;;;6263987;28;20053;-75
2023/01/23 05:50:32;;;;;;;20.17;12.40;;;;;;;;;;6265970;28;20326;-71
2023/01/23 05:53:34;;;;;;;18.90;11.85;;;;;;;;;;6265190;28;21380;-72
2023/01/23 05:56:36;;;;;;;18.45;11.93;;;;;;;;;;6265343;28;20359;-72
2023/01/23 05:59:39;;;;;;;18.38;11.70;;;;;;;;;;6262229;28;20340;-75
2023/01/23 06:02:41;;;;;;;19.33;12.38;;;;;;;;;;6259578;28;20052;-75
2023/01/23 06:05:42;;;;;;;21.35;12.55;;;;;;;;;;6262460;28;20056;-76
2023/01/23 06:08:44;;;;;;;16.67;10.80;;;;;;;;;;6265303;28;20090;-76
2023/01/23 06:11:46;;;;;;;18.35;10.90;;;;;;;;;;6262621;28;20053;-74
2023/01/23 06:14:49;;;;;;;19.27;11.00;;;;;;;;;;6265513;28;20053;-74
2023/01/23 06:17:51;;;;;;;15.32;10.02;;;;;;;;;;6257608;28;20057;-74
2023/01/23 06:20:58;;;;;;;17.15;10.20;;;;;;;;;;6263454;28;20045;-74
2023/01/23 06:24:00;;;;;;;15.23;9.48;;;;;;;;;;6264575;28;20056;-74
2023/01/23 06:27:03;;;;;;;17.55;8.85;;;;;;;;;;6266012;28;20049;-74
2023/01/23 06:30:08;;;;;;;14.20;9.13;;;;;;;;;;6263708;28;20056;-74
2023/01/23 06:33:09;;;;;;;16.92;9.50;;;;;;;;;;6263563;28;20351;-74
2023/01/23 06:36:11;;;;;;;18.27;9.38;;;;;;;;;;6255160;28;20327;-73
2023/01/23 06:39:14;;;;;;;15.63;8.20;;;;;;;;;;6258151;28;20049;-74
2023/01/23 06:42:15;;;;;;;17.70;9.07;;;;;;;;;;6257435;28;20044;-73
2023/01/23 06:45:19;;;;;;;14.68;7.90;;;;;;;;;;6264907;28;20068;-74
2023/01/23 06:48:20;;;;;;;17.20;10.50;;;;;;;;;;6264010;28;20056;-74
2023/01/23 06:51:22;;;;;;;15.38;8.65;;;;;;;;;;6263568;28;20065;-73
2023/01/23 06:54:24;;;;;;;12.65;7.70;;;;;;;;;;6262398;28;20061;-74
2023/01/23 06:57:25;;;;;;;13.00;7.40;;;;;;;;;;6265972;28;20049;-74
2023/01/23 07:00:28;;;;;;;11.18;6.85;;;;;;;;;;6262377;28;20329;-74
2023/01/23 07:03:30;;;;;;;10.98;7.22;;;;;;;;;;6259046;28;20045;-74
2023/01/23 07:06:32;;;;;;;9.13;6.25;;;;;;;;;;6262992;28;20559;-74
2023/01/23 07:09:34;;;;;;;12.93;6.93;;;;;;;;;;6259429;28;20059;-74
2023/01/23 07:12:35;;;;;;;15.27;7.53;;;;;;;;;;6262008;28;20048;-74
2023/01/23 07:15:38;;;;;;;9.63;6.68;;;;;;;;;;6263865;28;20049;-74
2023/01/23 07:18:40;;;;;;;12.82;7.38;;;;;;;;;;6261215;28;20110;-74
2023/01/23 07:21:42;;;;;;;12.65;7.45;;;;;;;;;;6259582;28;20057;-74
2023/01/23 07:24:43;;;;;;;11.52;7.00;;;;;;;;;;6262744;28;20106;-74
2023/01/23 07:27:45;;;;;;;14.63;8.70;;;;;;;;;;6263087;28;20295;-74
2023/01/23 07:30:50;;;;;;;19.05;9.93;;;;;;;;;;6262681;28;20362;-74
2023/01/23 07:33:51;;;;;;;17.88;10.15;;;;;;;;;;6262369;28;20056;-73
2023/01/23 07:36:53;;;;;;;16.02;9.25;;;;;;;;;;6265450;28;20049;-74
2023/01/23 07:39:55;;;;;;;17.88;9.60;;;;;;;;;;6263261;28;20057;-74
2023/01/23 07:42:56;;;;;;;17.02;9.75;;;;;;;;;;6263372;28;20355;-74
2023/01/23 07:46:00;;;;;;;14.70;8.40;;;;;;;;;;6262547;28;20315;-75
2023/01/23 07:49:02;;;;;;;14.40;8.63;;;;;;;;;;6259606;28;20253;-74
2023/01/23 07:52:04;;;;;;;21.45;9.25;;;;;;;;;;6253664;28;20103;-74
2023/01/23 07:55:07;;;;;;;19.50;9.52;;;;;;;;;;6261562;28;20057;-73
2023/01/23 07:58:08;;;;;;;17.38;8.82;;;;;;;;;;6264392;28;20067;-74
2023/01/23 08:01:12;;;;;;;13.82;8.57;;;;;;;;;;6263285;28;20063;-74
2023/01/23 08:04:13;;;;;;;15.80;8.57;;;;;;;;;;6262013;28;20068;-74
2023/01/23 08:07:15;;;;;;;16.10;8.20;;;;;;;;;;6263285;28;20364;-74
2023/01/23 08:10:17;;;;;;;14.80;8.40;;;;;;;;;;6263460;28;20065;-75
2023/01/23 08:13:19;;;;;;;15.18;8.60;;;;;;;;;;6259554;28;20111;-74
2023/01/23 08:16:22;;;;;;;15.55;8.27;;;;;;;;;;6264680;28;20064;-75
2023/01/23 08:19:26;;;;;;;16.52;9.23;;;;;;;;;;6262545;28;20059;-74
2023/01/23 08:22:27;;;;;;;14.23;8.35;;;;;;;;;;6263628;28;20071;-74
2023/01/23 08:25:29;;;;;;;17.60;7.65;;;;;;;;;;6266447;28;20327;-74
2023/01/23 08:28:31;;;;;;;28.52;8.68;;;;;;;;;;6258541;28;20044;-74
2023/01/23 08:31:35;;;;;;;18.42;9.13;;;;;;;;;;6258439;28;20260;-74
2023/01/23 08:34:37;;;;;;;16.00;9.23;;;;;;;;;;6262261;28;20049;-74
2023/01/23 08:37:40;;;;;;;15.88;9.07;;;;;;;;;;6261872;28;20057;-74
2023/01/23 08:40:42;;;;;;;21.58;9.23;;;;;;;;;;6262686;28;20053;-75
2023/01/23 08:43:44;;;;;;;15.15;8.88;;;;;;;;;;6263826;28;20095;-74
2023/01/23 08:46:47;;;;;;;15.88;9.70;;;;;;;;;;6260777;28;20069;-74
2023/01/23 08:49:49;;;;;;;14.60;9.30;;;;;;;;;;6262644;28;20052;-75
2023/01/23 08:52:50;;;;;;;14.15;8.75;;;;;;;;;;6262863;28;20046;-74
2023/01/23 08:55:52;;;;;;;17.77;9.43;;;;;;;;;;6261927;28;20110;-74
2023/01/23 08:58:53;;;;;;;15.90;9.00;;;;;;;;;;6263794;28;20045;-74
2023/01/23 09:01:56;;;;;;;15.93;9.45;;;;;;;;;;6255033;28;20048;-74
2023/01/23 09:04:58;;;;;;;16.27;9.23;;;;;;;;;;6260331;28;20049;-74
2023/01/23 09:08:00;;;;;;;13.57;8.93;;;;;;;;;;6263331;28;20095;-74
2023/01/23 09:11:02;;;;;;;17.83;9.45;;;;;;;;;;6265793;28;20041;-75
2023/01/23 09:14:03;;;;;;;20.67;9.85;;;;;;;;;;6265419;28;20052;-75
2023/01/23 09:17:06;;;;;;;16.13;9.23;;;;;;;;;;6265202;28;20053;-73
2023/01/23 09:20:09;;;;;;;24.67;8.82;;;;;;;;;;6269937;28;20049;-74
2023/01/23 09:23:11;;;;;;;15.43;9.00;;;;;;;;;;6268638;28;20103;-74
2023/01/23 09:26:14;;;;;;;18.73;8.40;;;;;;;;;;6267870;28;20229;-74
2023/01/23 09:29:15;;;;;;;18.45;10.15;;;;;;;;;;6268607;28;20111;-75
2023/01/23 09:32:19;;;;;;;18.23;10.20;;;;;;;;;;6270683;28;20345;-74
2023/01/23 09:35:22;;;;;;;21.13;10.47;;;;;;;;;;6268089;28;20877;-74
2023/01/23 09:38:23;;;;;;;17.38;9.52;;;;;;;;;;6270832;28;20321;-75
2023/01/23 09:41:27;;;;;;;21.95;9.60;;;;;;;;;;6268864;28;20052;-74
2023/01/23 09:44:36;;;;;;;15.35;9.13;;;;;;;;;;6268231;28;20049;-74
2023/01/23 09:47:43;;;;;;;15.98;9.85;;;;;;;;;;6268390;28;20063;-74
2023/01/23 09:50:53;;;;;;;17.48;9.05;;;;;;;;;;6269276;28;20264;-73
2023/01/23 09:53:59;;;;;;;19.02;9.32;;;;;;;;;;6272664;28;20131;-74
2023/01/23 09:57:04;;;;;;;14.40;9.00;;;;;;;;;;6269469;28;20116;-74
2023/01/23 10:00:13;;;;;;;17.20;9.23;;;;;;;;;;6269644;28;20399;-74
2023/01/23 10:03:16;;;;;;;15.00;9.65;;;;;;;;;;6270259;28;20053;-74
2023/01/23 10:06:22;;;;;;;13.68;8.30;;;;;;;;;;6270700;28;20049;-75
2023/01/23 10:09:33;;;;;;;18.65;9.88;;;;;;;;;;6269391;28;20053;-75
2023/01/23 10:12:41;;;;;;;14.00;9.23;;;;;;;;;;6267955;28;20052;-75
2023/01/23 10:16:03;;;;;;;16.80;9.13;;;;;;;;;;6268078;28;20069;-74
2023/01/23 10:19:16;;;;;;;16.77;10.02;;;;;;;;;;6269770;28;20372;-75
2023/01/23 10:22:27;;;;;;;15.73;8.98;;;;;;;;;;6267649;28;20261;-75
2023/01/23 10:25:33;;;;;;;15.90;9.68;;;;;;;;;;6263597;28;20356;-73
2023/01/23 10:28:39;;;;;;;15.38;9.82;;;;;;;;;;6259658;28;20060;-74
2023/01/23 10:31:44;;;;;;;17.60;11.00;;;;;;;;;;6263065;28;20108;-74
2023/01/23 10:34:54;;;;;;;17.33;10.95;;;;;;;;;;6260968;28;20069;-74
2023/01/23 10:38:01;;;;;;;19.45;10.57;;;;;;;;;;6262570;28;20091;-74
2023/01/23 10:41:18;;;;;;;14.82;10.25;;;;;;;;;;6260666;28;20045;-74
2023/01/23 10:44:21;;;;;;;15.75;9.75;;;;;;;;;;6267407;28;20336;-75
2023/01/23 10:47:28;;;;;;;18.75;10.85;;;;;;;;;;6265194;28;20109;-74
2023/01/23 10:50:38;;;;;;;16.40;10.00;;;;;;;;;;6265248;28;20103;-73
2023/01/23 10:53:39;;;;;;;19.40;10.32;;;;;;;;;;6262064;28;20359;-74
2023/01/23 10:56:49;;;;;;;18.33;10.80;;;;;;;;;;6262210;28;20427;-74
2023/01/23 10:59:55;;;;;;;18.35;10.95;;;;;;;;;;6257187;28;20340;-74
2023/01/23 11:03:04;;;;;;;17.35;10.27;;;;;;;;;;6261643;28;20132;-74
2023/01/23 11:06:09;;;;;;;21.33;10.82;;;;;;;;;;6259741;28;20257;-74
2023/01/23 11:09:19;;;;;;;23.15;12.15;;;;;;;;;;6263213;28;20178;-74
2023/01/23 11:12:23;;;;;;;18.42;11.02;;;;;;;;;;6264588;28;20045;-74
2023/01/23 11:15:27;;;;;;;18.38;11.32;;;;;;;;;;6263252;28;20064;-74
2023/01/23 11:18:33;;;;;;;18.45;12.18;;;;;;;;;;6263515;28;20391;-74
2023/01/23 11:21:38;;;;;;;19.63;11.45;;;;;;;;;;6264075;28;20053;-74
2023/01/23 11:24:40;;;;;;;17.88;11.30;;;;;;;;;;6266051;28;20068;-74
2023/01/23 11:27:56;;;;;;;18.05;11.38;;;;;;;;;;6259147;28;20189;-74
2023/01/23 11:31:05;;;;;;;22.95;10.90;;;;;;;;;;6258059;28;20167;-74
2023/01/23 11:34:11;;;;;;;19.70;10.75;;;;;;;;;;6253880;28;20061;-75
2023/01/23 11:37:18;;;;;;;18.75;10.70;;;;;;;;;;6264988;28;20155;-76
2023/01/23 11:40:20;;;;;;;17.65;10.85;;;;;;;;;;6263206;28;20063;-74
2023/01/23 11:43:22;;;;;;;51.35;26.00;;;;;;;;;;6261945;28;20061;-72
2023/01/23 11:46:35;;;;;;;54.35;30.38;;;;;;;;;;6263812;28;20063;-73
2023/01/23 11:50:01;;;;;;;29.85;18.00;;;;;;;;;;6263526;28;20052;-74
2023/01/23 11:53:14;;;;;;;21.55;12.25;;;;;;;;;;6259897;28;20341;-74
2023/01/23 11:56:28;;;;;;;16.17;11.43;;;;;;;;;;6258665;28;20111;-73
2023/01/23 11:59:45;;;;;;;17.83;11.50;;;;;;;;;;6261272;28;20390;-74
2023/01/23 12:03:15;;;;;;;20.60;11.95;;;;;;;;;;6261145;28;20041;-74
2023/01/23 12:06:36;;;;;;;20.27;11.25;;;;;;;;;;6259949;28;20284;-77
2023/01/23 12:09:45;;;;;;;18.00;11.38;;;;;;;;;;6260655;28;20060;-73
2023/01/23 12:13:08;;;;;;;16.15;10.82;;;;;;;;;;6262271;28;20049;-77
2023/01/23 12:16:16;;;;;;;22.52;11.13;;;;;;;;;;6258452;28;20104;-79
2023/01/23 12:19:29;;;;;;;22.27;11.30;;;;;;;;;;6264650;28;20096;-77
2023/01/23 12:22:37;;;;;;;15.68;10.68;;;;;;;;;;6261126;28;20106;-79
2023/01/23 12:25:41;;;;;;;16.52;10.85;;;;;;;;;;6261014;28;20364;-79
2023/01/23 12:29:03;;;;;;;16.75;10.32;;;;;;;;;;6261981;28;20038;-74
2023/01/23 12:32:29;;;;;;;15.57;10.80;;;;;;;;;;6262131;28;20061;-75
2023/01/23 12:35:37;;;;;;;15.68;9.85;;;;;;;;;;6261239;28;20057;-73
2023/01/23 12:38:47;;;;;;;20.40;10.35;;;;;;;;;;6258401;28;20100;-72
2023/01/23 12:41:52;;;;;;;18.13;9.50;;;;;;;;;;6258241;28;20112;-76
2023/01/23 12:44:59;;;;;;;21.27;10.88;;;;;;;;;;6269154;28;20052;-78
2023/01/23 12:48:06;;;;;;;196.50;79.55;;;;;;;;;;6265046;28;20279;-76
2023/01/23 12:51:10;;;;;;;21.27;12.13;;;;;;;;;;6266849;28;20049;-75
2023/01/23 12:54:30;;;;;;;28.02;15.05;;;;;;;;;;6267286;28;20055;-78
2023/01/23 12:57:50;;;;;;;44.17;22.70;;;;;;;;;;6269716;28;20064;-74
2023/01/23 13:01:02;;;;;;;36.63;17.98;;;;;;;;;;6269388;28;20037;-74
2023/01/23 13:04:14;;;;;;;30.55;16.13;;;;;;;;;;6266073;28;20064;-74
2023/01/23 13:07:25;;;;;;;17.98;11.73;;;;;;;;;;6267764;28;20095;-75
2023/01/23 13:13:58;;;;;;;21.60;11.93;;;;;;;;;;6266042;28;20446;-75
2023/01/23 13:17:02;;;;;;;23.73;12.43;;;;;;;;;;6266676;28;20053;-75
2023/01/23 13:23:44;;;;;;;18.38;11.60;;;;;;;;;;6244505;28;20064;-75
2023/01/23 13:26:46;;;;;;;19.75;11.88;;;;;;;;;;6266833;28;20333;-75
2023/01/23 13:29:50;;;;;;;18.90;11.52;;;;;;;;;;6266919;28;20053;-75
2023/01/23 13:32:53;;;;;;;22.40;11.50;;;;;;;;;;6266505;28;20275;-75
2023/01/23 13:35:57;;;;;;;20.50;10.43;;;;;;;;;;6268904;28;20083;-75
2023/01/23 13:39:28;;;;;;;20.02;10.85;;;;;;;;;;6258584;28;20075;-75
2023/01/23 13:42:35;;;;;;;21.25;11.25;;;;;;;;;;6263986;28;20064;-74
2023/01/23 13:45:50;;;;;;;17.42;10.07;;;;;;;;;;6264044;28;20121;-75
2023/01/23 13:58:54;;;;;;;13.25;7.80;;;;;;;;;;6265143;28;20060;-76
2023/01/23 14:05:25;;;;;;;17.77;8.35;;;;;;;;;;6264665;28;20260;-75
2023/01/23 14:08:27;;;;;;;14.50;8.15;;;;;;;;;;6265696;28;20072;-75
2023/01/23 14:11:36;;;;;;;16.48;8.35;;;;;;;;;;6265452;28;20063;-76
2023/01/23 14:17:59;;;;;;;15.95;7.95;;;;;;;;;;6266629;28;20056;-75
2023/01/23 14:21:05;;;;;;;19.15;10.57;;;;;;;;;;6265585;28;20057;-75
2023/01/23 14:24:21;;;;;;;18.00;10.68;;;;;;;;;;6263901;28;20049;-74
2023/01/23 14:27:29;;;;;;;36.35;17.67;;;;;;;;;;6263704;28;20076;-73
2023/01/23 14:30:31;;;;;;;12.73;8.13;;;;;;;;;;6266381;28;20041;-76
2023/01/23 14:33:42;;;;;;;13.65;8.63;;;;;;;;;;6266755;28;20049;-78
2023/01/23 14:36:45;;;;;;;14.27;8.55;;;;;;;;;;6263814;28;20076;-77
2023/01/23 14:39:47;;;;;;;14.00;8.50;;;;;;;;;;6266360;28;20119;-75
2023/01/23 14:42:56;;;;;;;13.77;8.13;;;;;;;;;;6265612;28;20053;-75
2023/01/23 14:46:01;;;;;;;14.80;7.97;;;;;;;;;;6264078;28;20057;-77
2023/01/23 14:49:07;;;;;;;16.13;8.73;;;;;;;;;;6262628;28;20053;-77
2023/01/23 14:52:21;;;;;;;15.27;8.57;;;;;;;;;;6261331;28;20045;-77
2023/01/23 14:55:25;;;;;;;15.13;8.43;;;;;;;;;;6263627;28;20115;-77
2023/01/23 14:58:28;;;;;;;15.32;8.52;;;;;;;;;;6264177;28;20329;-75
2023/01/23 15:01:30;;;;;;;15.90;8.90;;;;;;;;;;6262357;28;20057;-76
2023/01/23 15:04:33;;;;;;;17.30;9.57;;;;;;;;;;6263709;28;20064;-76
2023/01/23 15:07:34;;;;;;;15.20;8.90;;;;;;;;;;6264005;28;20070;-77
2023/01/23 15:10:45;;;;;;;15.57;9.48;;;;;;;;;;6264182;28;20258;-76
2023/01/23 15:13:49;;;;;;;14.82;8.50;;;;;;;;;;6260943;28;20053;-75
2023/01/23 15:16:51;;;;;;;17.92;9.10;;;;;;;;;;6264708;28;20056;-76
2023/01/23 15:19:55;;;;;;;15.82;9.63;;;;;;;;;;6265967;28;20156;-76
2023/01/23 15:22:56;;;;;;;20.23;10.18;;;;;;;;;;6264554;28;20353;-77
2023/01/23 15:26:20;;;;;;;22.60;9.95;;;;;;;;;;6261311;28;20064;-77
2023/01/23 15:29:22;;;;;;;20.75;10.77;;;;;;;;;;6261329;28;20322;-77
2023/01/23 15:32:25;;;;;;;16.63;10.30;;;;;;;;;;6262347;28;20060;-77
2023/01/23 15:35:29;;;;;;;17.25;10.13;;;;;;;;;;6263124;28;20245;-77
2023/01/23 15:38:31;;;;;;;19.85;10.05;;;;;;;;;;6260621;28;20065;-76
2023/01/23 15:41:40;;;;;;;18.35;10.40;;;;;;;;;;6265135;28;20049;-77
2023/01/23 15:44:42;;;;;;;22.50;9.98;;;;;;;;;;6261715;28;20045;-76
2023/01/23 15:47:44;;;;;;;17.55;9.88;;;;;;;;;;6264222;28;20256;-76
2023/01/23 15:50:47;;;;;;;18.38;9.95;;;;;;;;;;6264408;28;20059;-77
2023/01/23 15:53:49;;;;;;;73.60;35.35;;;;;;;;;;6264968;28;20257;-77
2023/01/23 15:56:50;;;;;;;81.60;37.30;;;;;;;;;;6264167;28;20103;-76
2023/01/23 15:59:52;;;;;;;70.07;31.02;;;;;;;;;;6264402;28;20053;-75
2023/01/23 16:02:54;;;;;;;41.53;18.55;;;;;;;;;;6265946;28;20971;-75
2023/01/23 16:05:58;;;;;;;53.15;25.10;;;;;;;;;;6263481;28;20414;-75
2023/01/23 16:09:00;;;;;;;37.72;17.73;;;;;;;;;;6261728;28;20054;-76
2023/01/23 16:12:01;;;;;;;17.80;11.63;;;;;;;;;;6261471;28;20076;-76
2023/01/23 16:15:13;;;;;;;21.13;11.18;;;;;;;;;;6262025;28;20058;-77
2023/01/23 16:18:15;;;;;;;17.60;11.07;;;;;;;;;;6265313;28;20257;-78
2023/01/23 16:21:28;;;;;;;19.40;10.82;;;;;;;;;;6270252;28;20094;-77
2023/01/23 16:24:35;;;;;;;23.35;11.73;;;;;;;;;;6268003;28;20053;-77
2023/01/23 16:27:36;;;;;;;18.92;11.15;;;;;;;;;;6267851;28;20106;-77
2023/01/23 16:30:38;;;;;;;21.17;10.98;;;;;;;;;;6267689;28;20115;-77
2023/01/23 16:33:40;;;;;;;19.80;11.68;;;;;;;;;;6266166;28;20061;-77
2023/01/23 16:36:43;;;;;;;18.23;11.73;;;;;;;;;;6268028;28;20056;-77
2023/01/23 16:39:46;;;;;;;20.50;11.55;;;;;;;;;;6265556;28;20340;-75
2023/01/23 16:42:49;;;;;;;22.40;12.38;;;;;;;;;;6269277;28;20053;-76
2023/01/23 16:45:52;;;;;;;17.08;10.73;;;;;;;;;;6267408;28;20049;-78
2023/01/23 16:48:55;;;;;;;19.83;11.80;;;;;;;;;;6267281;28;20049;-78
2023/01/23 16:52:00;;;;;;;18.63;11.37;;;;;;;;;;6267482;28;20136;-77
2023/01/23 16:55:04;;;;;;;21.25;11.90;;;;;;;;;;6267630;28;20336;-77
2023/01/23 16:58:06;;;;;;;21.52;11.20;;;;;;;;;;6265251;28;20056;-78
2023/01/23 17:01:12;;;;;;;23.67;11.70;;;;;;;;;;6266592;28;20061;-78
2023/01/23 17:04:15;;;;;;;19.52;11.65;;;;;;;;;;6268116;28;20104;-77
2023/01/23 17:07:19;;;;;;;23.80;12.45;;;;;;;;;;6264862;28;20091;-78
2023/01/23 17:10:22;;;;;;;22.08;11.02;;;;;;;;;;6266808;28;20113;-77
2023/01/23 17:13:24;;;;;;;21.23;12.73;;;;;;;;;;6263539;28;20053;-77
2023/01/23 17:16:26;;;;;;;18.73;11.75;;;;;;;;;;6265739;28;20052;-78
2023/01/23 17:19:30;;;;;;;22.05;12.45;;;;;;;;;;6266166;28;20078;-77
2023/01/23 17:22:36;;;;;;;21.25;11.65;;;;;;;;;;6262157;28;20041;-79
2023/01/23 17:25:39;;;;;;;20.02;11.60;;;;;;;;;;6265891;28;20087;-75
2023/01/23 17:28:40;;;;;;;27.55;12.77;;;;;;;;;;6264363;28;20119;-77
2023/01/23 17:31:42;;;;;;;23.98;12.80;;;;;;;;;;6264814;28;20095;-78
2023/01/23 17:34:44;;;;;;;28.02;12.57;;;;;;;;;;6265314;28;20226;-77
2023/01/23 17:37:49;;;;;;;21.08;12.18;;;;;;;;;;6266416;28;20064;-77
2023/01/23 17:40:51;;;;;;;23.15;11.70;;;;;;;;;;6265128;28;20110;-77
2023/01/23 17:43:52;;;;;;;22.52;12.35;;;;;;;;;;6266862;28;20068;-78
2023/01/23 17:46:54;;;;;;;24.23;13.07;;;;;;;;;;6265849;28;20481;-78
2023/01/23 17:49:57;;;;;;;31.40;13.18;;;;;;;;;;6264835;28;20049;-77
2023/01/23 17:53:00;;;;;;;21.20;11.73;;;;;;;;;;6266075;28;20363;-77
2023/01/23 17:56:01;;;;;;;23.83;12.63;;;;;;;;;;6263585;28;20057;-78
2023/01/23 17:59:03;;;;;;;22.45;12.45;;;;;;;;;;6264533;28;20057;-77
2023/01/23 18:02:15;;;;;;;19.80;12.27;;;;;;;;;;6264250;28;20049;-75
2023/01/23 18:05:17;;;;;;;24.23;12.80;;;;;;;;;;6266353;28;20098;-75
2023/01/23 18:08:21;;;;;;;21.88;12.43;;;;;;;;;;6264810;28;20052;-76
2023/01/23 18:11:24;;;;;;;21.52;13.13;;;;;;;;;;6265464;28;20053;-80
2023/01/23 18:14:40;;;;;;;23.90;12.13;;;;;;;;;;6258929;28;20045;-74
2023/01/23 18:17:47;;;;;;;24.85;12.93;;;;;;;;;;6261910;28;20296;-77
2023/01/23 18:20:53;;;;;;;20.85;13.18;;;;;;;;;;6263419;28;20091;-76
2023/01/23 18:23:56;;;;;;;25.33;12.30;;;;;;;;;;6263885;28;20041;-75
2023/01/23 18:27:00;;;;;;;26.00;12.35;;;;;;;;;;6265524;28;20045;-76